sensor_id;sensor_type;location;lat;lon;timestamp;temperature;humidity
20996;DHT22;10656;52.200;21.052;2023-07-13T00:06:50;18.70;99.90
20996;DHT22;10656;52.200;21.052;2023-07-13T01:37:25;18.80;99.90
20996;DHT22;10656;52.200;21.052;2023-07-13T02:02:48;19.00;99.90
20996;DHT22;10656;52.200;21.052;2023-07-13T02:28:38;18.70;99.90
20996;DHT22;10656;52.200;21.052;2023-07-13T02:58:57;18.70;99.90
20996;DHT22;10656;52.200;21.052;2023-07-13T03:19:16;18.70;99.90
20996;DHT22;10656;52.200;21.052;2023-07-13T04:45:03;22.20;99.90
20996;DHT22;10656;52.200;21.052;2023-07-13T06:01:43;24.10;99.90
20996;DHT22;10656;52.200;21.052;2023-07-13T06:22:03;23.00;99.90
20996;DHT22;10656;52.200;21.052;2023-07-13T06:52:26;23.80;93.20
20996;DHT22;10656;52.200;21.052;2023-07-13T07:12:51;24.20;87.30
20996;DHT22;10656;52.200;21.052;2023-07-13T07:20:10;24.50;85.10
20996;DHT22;10656;52.200;21.052;2023-07-13T08:23:37;26.90;63.90
20996;DHT22;10656;52.200;21.052;2023-07-13T08:48:59;27.90;61.30
20996;DHT22;10656;52.200;21.052;2023-07-13T09:29:22;28.60;60.80
20996;DHT22;10656;52.200;21.052;2023-07-13T09:54:57;27.30;61.80
20996;DHT22;10656;52.200;21.052;2023-07-13T10:20:29;24.80;76.90
20996;DHT22;10656;52.200;21.052;2023-07-13T10:41:30;23.50;80.80
20996;DHT22;10656;52.200;21.052;2023-07-13T10:45:24;23.20;80.90
20996;DHT22;10656;52.200;21.052;2023-07-13T11:46:38;19.20;99.90
20996;DHT22;10656;52.200;21.052;2023-07-13T13:07:43;19.90;99.90
20996;DHT22;10656;52.200;21.052;2023-07-13T13:28:01;20.10;99.90
20996;DHT22;10656;52.200;21.052;2023-07-13T13:58:27;20.30;99.90
20996;DHT22;10656;52.200;21.052;2023-07-13T14:18:36;20.50;99.90
20996;DHT22;10656;52.200;21.052;2023-07-13T14:44:21;20.70;99.90
20996;DHT22;10656;52.200;21.052;2023-07-13T14:48:39;20.70;99.90
20996;DHT22;10656;52.200;21.052;2023-07-13T15:04:26;20.90;99.90
20996;DHT22;10656;52.200;21.052;2023-07-13T15:29:29;20.40;99.90
20996;DHT22;10656;52.200;21.052;2023-07-13T15:49:58;20.00;99.90
20996;DHT22;10656;52.200;21.052;2023-07-13T16:20:35;19.90;99.90
20996;DHT22;10656;52.200;21.052;2023-07-13T16:23:37;20.00;99.90
20996;DHT22;10656;52.200;21.052;2023-07-13T16:40:38;20.30;99.90
20996;DHT22;10656;52.200;21.052;2023-07-13T17:10:41;20.30;99.90
20996;DHT22;10656;52.200;21.052;2023-07-13T17:31:40;20.40;99.90
20996;DHT22;10656;52.200;21.052;2023-07-13T18:01:59;20.60;99.90
20996;DHT22;10656;52.200;21.052;2023-07-13T18:32:26;20.20;99.90
20996;DHT22;10656;52.200;21.052;2023-07-13T18:57:56;19.20;99.90
20996;DHT22;10656;52.200;21.052;2023-07-13T19:02:16;19.00;99.90
20996;DHT22;10656;52.200;21.052;2023-07-13T19:32:46;18.20;99.90
20996;DHT22;10656;52.200;21.052;2023-07-13T20:28:29;17.80;99.90
20996;DHT22;10656;52.200;21.052;2023-07-13T20:48:44;17.80;99.90
20996;DHT22;10656;52.200;21.052;2023-07-13T21:14:38;17.40;99.90
20996;DHT22;10656;52.200;21.052;2023-07-13T21:39:59;17.80;99.90
20996;DHT22;10656;52.200;21.052;2023-07-13T22:15:01;17.30;99.90
20996;DHT22;10656;52.200;21.052;2023-07-13T22:35:47;17.30;99.90
20996;DHT22;10656;52.200;21.052;2023-07-13T23:26:31;17.40;99.90
20996;DHT22;10656;52.200;21.052;2023-07-13T23:52:00;17.20;99.90
